RJDB(METAR)
06/25 14:00
RJDB 250500Z 04009KT 9999 FEW020 BKNXXX 25/19 Q1013 RMK A2994=
戻る
トップページへ戻る
IMOC Co,.Ltd.